createdAt,value
2018-07-23T00:00:20.647Z,99.90
2018-07-23T00:02:54.984Z,99.90
2018-07-23T00:05:29.465Z,99.90
2018-07-23T00:08:03.983Z,99.90
2018-07-23T00:10:38.465Z,99.90
2018-07-23T00:13:12.801Z,99.90
2018-07-23T00:15:47.121Z,99.90
2018-07-23T00:18:21.528Z,99.90
2018-07-23T00:20:55.850Z,99.90
2018-07-23T00:23:30.269Z,99.90
2018-07-23T00:26:04.640Z,99.90
2018-07-23T00:28:39.068Z,99.90
2018-07-23T00:31:13.565Z,99.90
2018-07-23T00:33:47.991Z,99.90
2018-07-23T00:36:22.431Z,99.90
2018-07-23T00:38:56.745Z,99.90
2018-07-23T00:41:31.308Z,99.90
2018-07-23T00:44:05.774Z,99.90
2018-07-23T00:46:40.107Z,99.90
2018-07-23T00:49:14.398Z,99.90
2018-07-23T00:51:48.785Z,99.90
2018-07-23T00:54:23.200Z,99.90
2018-07-23T00:56:57.555Z,99.90
2018-07-23T00:59:32.102Z,99.90
2018-07-23T01:02:06.534Z,99.90
2018-07-23T01:04:40.961Z,99.90
2018-07-23T01:07:15.397Z,99.90
2018-07-23T01:09:50.131Z,99.90
2018-07-23T01:12:29.100Z,99.90
2018-07-23T01:15:03.542Z,99.90
2018-07-23T01:17:37.980Z,99.90
2018-07-23T01:20:12.231Z,99.90
2018-07-23T01:22:46.593Z,99.90
2018-07-23T01:25:20.906Z,99.90
2018-07-23T01:27:55.259Z,99.90
2018-07-23T01:30:29.538Z,99.90
2018-07-23T01:33:03.860Z,99.90
2018-07-23T01:35:38.201Z,99.90
2018-07-23T01:38:12.542Z,99.90
2018-07-23T01:40:46.945Z,99.90
2018-07-23T01:43:21.607Z,99.90
2018-07-23T01:45:55.948Z,99.90
2018-07-23T01:48:30.374Z,99.90
2018-07-23T01:51:04.930Z,99.90
2018-07-23T01:53:39.303Z,99.90
2018-07-23T01:56:13.831Z,99.90
2018-07-23T01:58:48.322Z,99.90
2018-07-23T02:01:22.650Z,99.90
2018-07-23T02:03:57.241Z,99.90
2018-07-23T02:06:31.576Z,99.90
2018-07-23T02:09:08.444Z,99.90
2018-07-23T02:11:42.822Z,99.90
2018-07-23T02:14:17.199Z,99.90
2018-07-23T02:16:51.622Z,99.90
2018-07-23T02:19:26.274Z,99.90
2018-07-23T02:22:00.758Z,99.90
2018-07-23T02:24:35.438Z,99.90
2018-07-23T02:27:10.209Z,99.90
2018-07-23T02:29:44.716Z,99.90
2018-07-23T02:32:19.535Z,99.90
2018-07-23T02:34:54.090Z,99.90
2018-07-23T02:37:28.953Z,99.90
2018-07-23T02:40:03.368Z,99.90
2018-07-23T02:42:37.724Z,99.90
2018-07-23T02:45:12.135Z,99.90
2018-07-23T02:47:46.944Z,99.90
2018-07-23T02:50:21.605Z,99.90
2018-07-23T02:52:55.994Z,99.90
2018-07-23T02:55:30.531Z,99.90
2018-07-23T02:58:04.779Z,99.90
2018-07-23T03:00:39.257Z,99.90
2018-07-23T03:03:13.585Z,99.90
2018-07-23T03:05:47.935Z,99.90
2018-07-23T03:08:22.556Z,99.90
2018-07-23T03:10:56.888Z,99.90
2018-07-23T03:13:31.230Z,99.90
2018-07-23T03:16:05.808Z,99.90
2018-07-23T03:18:40.331Z,99.90
2018-07-23T03:21:14.811Z,99.90
2018-07-23T03:23:49.270Z,99.90
2018-07-23T03:26:23.788Z,99.90
2018-07-23T03:28:58.274Z,99.90
2018-07-23T03:34:07.106Z,99.90
2018-07-23T03:36:41.590Z,99.90
2018-07-23T03:39:16.011Z,99.90
2018-07-23T03:41:50.411Z,99.90
2018-07-23T03:44:26.353Z,99.90
2018-07-23T03:47:00.719Z,99.90
2018-07-23T03:49:35.135Z,99.90
2018-07-23T03:52:09.528Z,99.90
2018-07-23T03:54:44.017Z,99.90
2018-07-23T03:57:18.423Z,99.90
2018-07-23T03:59:52.871Z,99.90
2018-07-23T04:02:27.351Z,99.90
2018-07-23T04:05:01.685Z,99.90
2018-07-23T04:07:36.171Z,99.90
2018-07-23T04:10:10.667Z,99.90
2018-07-23T04:12:45.087Z,99.90
2018-07-23T04:15:19.355Z,99.90
2018-07-23T04:18:09.376Z,99.90
2018-07-23T04:20:43.809Z,99.90
2018-07-23T04:23:18.191Z,99.90
2018-07-23T04:25:52.530Z,99.90
2018-07-23T04:28:26.773Z,99.90
2018-07-23T04:31:01.160Z,99.90
2018-07-23T04:33:35.827Z,99.90
2018-07-23T04:36:10.144Z,99.90
2018-07-23T04:38:44.373Z,99.90
2018-07-23T04:41:18.756Z,99.90
2018-07-23T04:43:53.045Z,99.90
2018-07-23T04:46:27.425Z,99.90
2018-07-23T04:49:01.759Z,99.90
2018-07-23T04:51:36.136Z,99.90
2018-07-23T04:54:10.549Z,99.90
2018-07-23T04:56:45.036Z,99.90
2018-07-23T04:59:19.375Z,99.90
2018-07-23T05:01:53.797Z,99.90
2018-07-23T05:04:28.252Z,99.90
2018-07-23T05:07:02.798Z,99.90
2018-07-23T05:09:37.223Z,99.90
2018-07-23T05:12:11.530Z,99.90
2018-07-23T05:14:45.985Z,99.90
2018-07-23T05:17:23.851Z,99.90
2018-07-23T05:19:58.214Z,99.90
2018-07-23T05:22:32.494Z,99.90
2018-07-23T05:25:06.730Z,99.90
2018-07-23T05:27:41.181Z,99.90
2018-07-23T05:30:15.476Z,99.90
2018-07-23T05:32:49.800Z,99.90
2018-07-23T05:35:24.263Z,99.90
2018-07-23T05:40:32.541Z,99.90
2018-07-23T05:43:06.994Z,99.90
2018-07-23T05:45:41.324Z,99.90
2018-07-23T05:48:15.757Z,99.90
2018-07-23T05:50:50.520Z,99.90
2018-07-23T05:53:24.761Z,99.90
2018-07-23T05:55:59.109Z,99.90
2018-07-23T05:58:33.505Z,99.90
2018-07-23T06:01:07.882Z,99.90
2018-07-23T06:03:42.211Z,99.90
2018-07-23T06:06:16.576Z,99.90
2018-07-23T06:08:50.878Z,99.90
2018-07-23T06:11:25.303Z,99.90
2018-07-23T06:13:59.618Z,99.90
2018-07-23T06:16:34.268Z,99.90
2018-07-23T06:19:08.534Z,99.90
2018-07-23T06:21:42.796Z,99.90
2018-07-23T06:24:17.123Z,99.90
2018-07-23T06:26:51.386Z,99.90
2018-07-23T06:29:25.610Z,99.90
2018-07-23T06:31:59.951Z,99.90
2018-07-23T06:34:34.313Z,99.90
2018-07-23T06:37:08.540Z,99.90
2018-07-23T06:39:43.154Z,99.90
2018-07-23T06:42:17.753Z,99.90
2018-07-23T06:44:52.093Z,99.90
2018-07-23T06:47:26.786Z,99.90
2018-07-23T06:50:01.213Z,99.90
2018-07-23T06:52:35.711Z,99.90
2018-07-23T06:55:10.090Z,99.90
2018-07-23T06:57:44.581Z,99.90
2018-07-23T07:00:18.814Z,99.90
2018-07-23T07:02:53.090Z,99.90
2018-07-23T07:05:27.384Z,99.90
2018-07-23T07:08:01.823Z,99.90
2018-07-23T07:10:36.242Z,99.90
2018-07-23T07:13:10.684Z,99.90
2018-07-23T07:15:45.105Z,99.90
2018-07-23T07:18:19.728Z,99.90
2018-07-23T07:20:54.077Z,99.90
2018-07-23T07:23:28.451Z,99.90
2018-07-23T07:26:02.796Z,99.90
2018-07-23T07:28:37.242Z,99.90
2018-07-23T07:31:11.678Z,99.90
2018-07-23T07:33:45.998Z,99.90
2018-07-23T07:36:20.430Z,99.90
2018-07-23T07:38:54.905Z,99.90
2018-07-23T07:41:29.387Z,99.90
2018-07-23T07:44:03.835Z,99.90
2018-07-23T07:46:39.252Z,99.90
2018-07-23T07:49:13.691Z,99.90
2018-07-23T07:51:48.036Z,99.90
2018-07-23T07:54:22.485Z,99.90
2018-07-23T07:56:56.831Z,99.90
2018-07-23T07:59:31.233Z,99.90
2018-07-23T08:02:05.614Z,99.90
2018-07-23T08:04:40.134Z,99.90
2018-07-23T08:07:14.512Z,99.90
2018-07-23T08:09:48.941Z,99.90
2018-07-23T08:12:23.415Z,99.90
2018-07-23T08:14:57.760Z,99.90
2018-07-23T08:20:06.482Z,99.90
2018-07-23T08:22:40.823Z,99.90
2018-07-23T08:25:15.242Z,99.90
2018-07-23T08:27:49.701Z,99.90
2018-07-23T08:30:24.086Z,99.90
2018-07-23T08:32:58.412Z,99.90
2018-07-23T08:35:32.839Z,99.90
2018-07-23T08:38:07.197Z,99.90
2018-07-23T08:40:41.729Z,99.90
2018-07-23T08:43:16.337Z,99.90
2018-07-23T08:45:50.667Z,99.90
2018-07-23T08:48:24.962Z,99.90
2018-07-23T08:50:59.422Z,99.90
2018-07-23T08:53:33.736Z,99.90
2018-07-23T08:56:08.219Z,99.90
2018-07-23T08:58:42.721Z,99.90
2018-07-23T09:01:17.264Z,99.90
2018-07-23T09:03:51.684Z,99.90
2018-07-23T09:06:26.378Z,99.90
2018-07-23T09:09:00.796Z,99.90
2018-07-23T09:11:35.072Z,99.90
2018-07-23T09:14:09.650Z,99.90
2018-07-23T09:16:44.131Z,99.90
2018-07-23T09:19:18.566Z,99.90
2018-07-23T09:21:52.969Z,99.90
2018-07-23T09:24:27.307Z,99.90
2018-07-23T09:27:01.662Z,99.90
2018-07-23T09:29:36.033Z,99.90
2018-07-23T09:32:10.447Z,99.90
2018-07-23T09:34:44.863Z,99.90
2018-07-23T09:37:19.279Z,99.90
2018-07-23T09:39:54.309Z,99.90
2018-07-23T09:42:28.650Z,99.90
2018-07-23T09:45:03.535Z,99.90
2018-07-23T09:47:37.891Z,99.90
2018-07-23T09:50:12.330Z,99.90
2018-07-23T09:52:46.753Z,99.90
2018-07-23T09:55:21.217Z,99.90
2018-07-23T09:57:55.566Z,99.90
2018-07-23T10:00:35.554Z,99.90
2018-07-23T10:03:09.891Z,99.90
2018-07-23T10:05:44.261Z,99.90
2018-07-23T10:08:18.719Z,99.90
2018-07-23T10:10:53.174Z,99.90
2018-07-23T10:13:27.429Z,99.90
2018-07-23T10:16:01.820Z,99.90
2018-07-23T10:18:36.214Z,99.90
2018-07-23T10:21:10.468Z,99.90
2018-07-23T10:23:44.931Z,99.90
2018-07-23T10:26:19.143Z,99.90
2018-07-23T10:28:53.571Z,99.90
2018-07-23T10:31:27.943Z,99.90
2018-07-23T10:34:02.219Z,99.90
2018-07-23T10:36:36.597Z,99.90
2018-07-23T10:39:11.222Z,99.90
2018-07-23T10:41:45.498Z,99.90
2018-07-23T10:44:19.698Z,99.90
2018-07-23T10:46:54.174Z,99.90
2018-07-23T10:49:28.499Z,99.90
2018-07-23T10:52:02.831Z,99.90
2018-07-23T10:54:37.174Z,99.90
2018-07-23T10:57:11.634Z,99.90
2018-07-23T10:59:46.059Z,99.90
2018-07-23T11:02:21.193Z,99.90
2018-07-23T11:04:55.633Z,99.90
2018-07-23T11:07:29.981Z,99.90
2018-07-23T11:10:04.732Z,99.90
2018-07-23T11:12:39.069Z,99.90
2018-07-23T11:15:13.378Z,99.90
2018-07-23T11:20:21.783Z,99.90
2018-07-23T11:22:56.135Z,99.90
2018-07-23T11:25:39.179Z,99.90
2018-07-23T11:30:38.894Z,99.90
2018-07-23T11:33:13.387Z,99.90
2018-07-23T11:35:47.696Z,99.90
2018-07-23T11:38:21.941Z,99.90
2018-07-23T11:40:56.328Z,99.90
2018-07-23T11:43:30.589Z,99.90
2018-07-23T11:46:05.075Z,99.90
2018-07-23T11:48:39.312Z,99.90
2018-07-23T11:51:13.732Z,99.90
2018-07-23T11:53:47.941Z,99.90
2018-07-23T11:56:22.419Z,99.90
2018-07-23T11:58:56.807Z,99.90
2018-07-23T12:01:31.201Z,99.90
2018-07-23T12:04:10.405Z,99.90
2018-07-23T12:06:39.990Z,99.90
2018-07-23T12:09:14.293Z,99.90
2018-07-23T12:11:48.656Z,99.90
2018-07-23T12:14:23.095Z,99.90
2018-07-23T12:16:57.482Z,99.90
2018-07-23T12:19:31.807Z,99.90
2018-07-23T12:22:06.229Z,99.90
2018-07-23T12:24:40.694Z,99.90
2018-07-23T12:27:15.053Z,99.90
2018-07-23T12:29:49.387Z,99.90
2018-07-23T12:32:23.700Z,99.90
2018-07-23T12:34:58.165Z,99.90
2018-07-23T12:37:32.785Z,99.90
2018-07-23T12:40:07.223Z,99.90
2018-07-23T12:42:41.610Z,99.90
2018-07-23T12:45:16.038Z,99.90
2018-07-23T12:47:50.805Z,99.90
2018-07-23T12:50:25.272Z,99.90
2018-07-23T12:52:59.676Z,99.90
2018-07-23T12:55:34.122Z,99.90
2018-07-23T12:58:08.623Z,99.90
2018-07-23T13:00:42.972Z,99.90
2018-07-23T13:03:17.402Z,99.90
2018-07-23T13:05:51.756Z,99.90
2018-07-23T13:08:26.083Z,99.90
2018-07-23T13:11:00.438Z,99.90
2018-07-23T13:13:34.750Z,99.90
2018-07-23T13:16:09.267Z,99.90
2018-07-23T13:18:43.675Z,99.90
2018-07-23T13:21:18.145Z,99.90
2018-07-23T13:23:52.501Z,99.90
2018-07-23T13:26:26.851Z,99.90
2018-07-23T13:29:02.114Z,99.90
2018-07-23T13:31:36.493Z,99.90
2018-07-23T13:34:10.962Z,99.90
2018-07-23T13:36:45.459Z,99.90
2018-07-23T13:39:19.929Z,99.90
2018-07-23T13:41:54.365Z,99.90
2018-07-23T13:44:28.697Z,99.90
2018-07-23T13:47:03.105Z,99.90
2018-07-23T13:49:37.377Z,99.90
2018-07-23T13:52:11.943Z,99.90
2018-07-23T13:54:46.522Z,99.90
2018-07-23T13:57:20.930Z,99.90
2018-07-23T13:59:55.346Z,99.90
2018-07-23T14:02:29.778Z,99.90
2018-07-23T14:05:04.282Z,99.90
2018-07-23T14:07:38.818Z,99.90
2018-07-23T14:10:13.322Z,99.90
2018-07-23T14:12:47.735Z,99.90
2018-07-23T14:15:22.038Z,99.90
2018-07-23T14:17:56.449Z,99.90
2018-07-23T14:20:30.739Z,99.90
2018-07-23T14:23:05.202Z,99.90
2018-07-23T14:25:39.667Z,99.90
2018-07-23T14:28:14.102Z,99.90
2018-07-23T14:30:48.588Z,99.90
2018-07-23T14:33:22.951Z,99.90
2018-07-23T14:35:57.517Z,99.90
2018-07-23T14:38:31.867Z,99.90
2018-07-23T14:41:06.138Z,99.90
2018-07-23T14:43:40.490Z,99.90
2018-07-23T14:46:14.841Z,99.90
2018-07-23T14:48:49.322Z,99.90
2018-07-23T14:51:23.707Z,99.90
2018-07-23T14:53:58.031Z,99.90
2018-07-23T14:56:32.351Z,99.90
2018-07-23T14:59:06.801Z,99.90
2018-07-23T15:01:41.278Z,99.90
2018-07-23T15:04:15.597Z,99.90
2018-07-23T15:06:49.905Z,99.90
2018-07-23T15:09:24.355Z,99.80
2018-07-23T15:11:58.746Z,99.90
2018-07-23T15:14:33.209Z,99.40
2018-07-23T15:17:07.602Z,99.90
2018-07-23T15:19:41.929Z,99.90
2018-07-23T15:22:16.423Z,99.90
2018-07-23T15:24:50.746Z,99.90
2018-07-23T15:27:25.166Z,99.90
2018-07-23T15:29:59.749Z,99.90
2018-07-23T15:32:34.215Z,98.70
2018-07-23T15:35:08.577Z,99.10
2018-07-23T15:37:43.040Z,98.40
2018-07-23T15:40:17.522Z,97.80
2018-07-23T15:42:51.956Z,96.20
2018-07-23T15:45:26.390Z,97.90
2018-07-23T15:48:00.869Z,97.80
2018-07-23T15:50:35.263Z,97.40
2018-07-23T15:53:09.736Z,98.50
2018-07-23T15:55:44.210Z,96.70
2018-07-23T15:58:18.554Z,97.00
2018-07-23T16:00:53.026Z,96.20
2018-07-23T16:03:27.459Z,97.00
2018-07-23T16:06:01.882Z,95.90
2018-07-23T16:08:36.302Z,97.60
2018-07-23T16:11:10.801Z,99.40
2018-07-23T16:13:45.297Z,99.60
2018-07-23T16:16:19.773Z,99.90
2018-07-23T16:18:54.369Z,99.50
2018-07-23T16:21:28.977Z,99.80
2018-07-23T16:24:03.377Z,99.90
2018-07-23T16:26:37.756Z,99.90
2018-07-23T16:29:12.186Z,99.90
2018-07-23T16:31:46.645Z,99.90
2018-07-23T16:34:20.977Z,99.90
2018-07-23T16:36:55.472Z,99.90
2018-07-23T16:39:29.935Z,99.90
2018-07-23T16:42:04.310Z,98.00
2018-07-23T16:44:38.771Z,97.20
2018-07-23T16:47:13.126Z,97.20
2018-07-23T16:49:47.531Z,97.20
2018-07-23T16:52:21.992Z,96.90
2018-07-23T16:54:56.532Z,96.80
2018-07-23T16:57:30.917Z,97.10
2018-07-23T17:00:05.854Z,97.60
2018-07-23T17:02:40.209Z,98.50
2018-07-23T17:05:14.563Z,98.30
2018-07-23T17:07:49.104Z,98.80
2018-07-23T17:10:23.524Z,99.00
2018-07-23T17:12:57.899Z,99.90
2018-07-23T17:15:32.341Z,99.70
2018-07-23T17:18:06.871Z,99.90
2018-07-23T17:20:41.333Z,99.90
2018-07-23T17:23:15.889Z,99.90
2018-07-23T17:25:50.329Z,99.90
2018-07-23T17:28:24.826Z,99.90
2018-07-23T17:30:59.163Z,99.90
2018-07-23T17:33:33.634Z,99.90
2018-07-23T17:36:08.111Z,99.90
2018-07-23T17:38:42.489Z,99.90
2018-07-23T17:41:16.826Z,99.90
2018-07-23T17:43:51.100Z,99.90
2018-07-23T17:46:25.644Z,99.90
2018-07-23T17:48:59.968Z,99.90
2018-07-23T17:51:34.359Z,99.90
2018-07-23T17:54:08.754Z,99.90
2018-07-23T17:56:43.129Z,99.90
2018-07-23T17:59:17.476Z,99.90
2018-07-23T18:01:51.816Z,99.90
2018-07-23T18:04:26.193Z,99.90
2018-07-23T18:07:00.508Z,99.90
2018-07-23T18:09:34.802Z,99.90
2018-07-23T18:12:09.596Z,99.90
2018-07-23T18:14:44.036Z,99.90
2018-07-23T18:17:18.377Z,99.90
2018-07-23T18:19:52.853Z,99.90
2018-07-23T18:22:27.198Z,99.90
2018-07-23T18:25:01.780Z,99.90
2018-07-23T18:27:36.125Z,99.90
2018-07-23T18:30:10.524Z,99.90
2018-07-23T18:32:44.912Z,99.90
2018-07-23T18:35:19.222Z,99.90
2018-07-23T18:37:53.585Z,99.90
2018-07-23T18:40:27.833Z,99.90
2018-07-23T18:43:02.215Z,99.90
2018-07-23T18:45:36.473Z,99.90
2018-07-23T18:49:24.460Z,99.90
2018-07-23T18:51:58.943Z,99.90
2018-07-23T18:54:33.983Z,99.90
2018-07-23T18:57:08.940Z,99.90
2018-07-23T18:59:43.344Z,99.90
2018-07-23T19:02:19.173Z,99.90
2018-07-23T19:04:53.573Z,99.90
2018-07-23T19:07:28.180Z,99.90
2018-07-23T19:10:02.775Z,99.90
2018-07-23T19:12:37.593Z,99.90
2018-07-23T19:15:12.207Z,99.90
2018-07-23T19:17:46.874Z,99.90
2018-07-23T19:20:21.427Z,99.90
2018-07-23T19:22:55.990Z,99.90
2018-07-23T19:25:30.517Z,99.90
2018-07-23T19:28:05.457Z,99.90
2018-07-23T19:30:40.185Z,99.90
2018-07-23T19:33:14.915Z,99.90
2018-07-23T19:35:49.491Z,99.90
2018-07-23T19:38:24.084Z,99.90
2018-07-23T19:40:58.738Z,99.90
2018-07-23T19:43:33.233Z,99.90
2018-07-23T19:46:07.805Z,99.90
2018-07-23T19:48:42.138Z,99.90
2018-07-23T19:51:16.461Z,99.90
2018-07-23T19:53:50.904Z,99.90
2018-07-23T19:56:25.295Z,99.90
2018-07-23T19:58:59.748Z,99.90
2018-07-23T20:01:34.385Z,99.90
2018-07-23T20:04:08.779Z,99.90
2018-07-23T20:06:43.147Z,99.90
2018-07-23T20:09:17.670Z,99.90
2018-07-23T20:11:52.110Z,99.90
2018-07-23T20:14:26.622Z,99.90
2018-07-23T20:17:01.074Z,99.90
2018-07-23T20:19:35.388Z,99.90
2018-07-23T20:22:09.763Z,99.90
2018-07-23T20:24:44.458Z,99.90
2018-07-23T20:27:19.056Z,99.90
2018-07-23T20:29:53.348Z,99.90
2018-07-23T20:32:27.691Z,99.90
2018-07-23T20:35:01.990Z,99.90
2018-07-23T20:37:36.266Z,99.90
